Time;durP1;ratioP1;P1;durP2;ratioP2;P2;SDS_P1;SDS_P2;PMS_P1;PMS_P2;Temp;Humidity;BMP_temperature;BMP_pressure;BME280_temperature;BME280_humidity;BME280_pressure;Samples;Min_cycle;Max_cycle;Signal;HPM_P1;HPM_P2
2023/03/15 00:01:17;;;;;;;0.70;0.70;;;7.00;74.70;;;6.62;60.83;93993.34;5132356;27;20626;-17
2023/03/15 00:03:45;;;;;;;0.60;0.60;;;7.00;74.70;;;6.62;61.25;93998.56;5116931;28;20213;-17
2023/03/15 00:06:12;;;;;;;0.60;0.60;;;6.90;74.80;;;6.64;61.24;94001.75;5132586;27;20284;-17
2023/03/15 00:08:39;;;;;;;0.60;0.60;;;7.00;74.80;;;6.66;61.29;93997.97;5116431;28;20214;-17
2023/03/15 00:11:06;;;;;;;0.65;0.65;;;7.00;74.80;;;6.66;61.26;94002.38;5116070;28;20222;-17
2023/03/15 00:13:33;;;;;;;0.60;0.60;;;7.00;74.80;;;6.59;61.24;94004.94;5116161;28;20269;-17
2023/03/15 00:16:02;;;;;;;0.70;0.70;;;7.00;74.80;;;6.53;61.76;94006.50;5115127;28;20581;-17
2023/03/15 00:18:29;;;;;;;0.60;0.60;;;6.90;75.00;;;6.56;61.82;94008.72;5116307;28;20270;-17
2023/03/15 00:20:57;;;;;;;0.70;0.70;;;6.90;75.00;;;6.53;61.67;94009.09;5115880;28;20250;-17
2023/03/15 00:23:24;;;;;;;0.80;0.80;;;6.90;75.00;;;6.54;61.56;94005.50;5132092;27;20213;-17
2023/03/15 00:25:52;;;;;;;0.70;0.70;;;6.90;74.90;;;6.56;61.21;94016.53;5115777;27;20230;-17
2023/03/15 00:28:20;;;;;;;0.70;0.70;;;6.90;74.90;;;6.59;61.38;94009.34;5115814;28;20555;-17
2023/03/15 00:30:47;;;;;;;0.70;0.70;;;6.90;75.00;;;6.61;60.98;94015.19;5097908;28;20209;-17
2023/03/15 00:33:15;;;;;;;0.65;0.65;;;6.90;74.90;;;6.60;61.06;94010.97;5114856;28;20292;-17
2023/03/15 00:35:44;;;;;;;0.80;0.80;;;6.90;74.70;;;6.60;61.12;94021.38;5114768;28;20194;-17
2023/03/15 00:38:13;;;;;;;0.70;0.70;;;7.00;74.70;;;6.60;60.79;94023.97;5116582;28;20194;-17
2023/03/15 00:40:41;;;;;;;0.60;0.60;;;7.00;74.60;;;6.59;60.73;94027.56;5115510;28;20641;-17
2023/03/15 00:43:08;;;;;;;0.60;0.60;;;7.00;74.60;;;6.57;60.40;94027.78;5115895;28;20281;-17
2023/03/15 00:45:36;;;;;;;0.80;0.80;;;7.00;74.40;;;6.57;60.52;94033.78;5131776;27;20613;-17
2023/03/15 00:48:04;;;;;;;0.70;0.70;;;6.90;74.40;;;6.55;60.32;94043.59;5114590;28;20528;-17
2023/03/15 00:50:31;;;;;;;0.70;0.70;;;6.90;74.30;;;6.48;60.56;94042.75;5115847;28;20197;-17
2023/03/15 00:52:58;;;;;;;0.77;0.77;;;6.90;74.40;;;6.46;60.22;94055.13;5115522;28;20200;-17
2023/03/15 00:55:27;;;;;;;0.70;0.70;;;6.80;74.20;;;6.46;60.64;94049.09;5131716;27;20527;-17
2023/03/15 00:57:55;;;;;;;0.70;0.70;;;6.90;74.30;;;6.41;60.52;94065.31;5114594;28;20198;-17
2023/03/15 01:00:23;;;;;;;0.60;0.60;;;6.80;74.30;;;6.39;60.78;94072.50;5114336;28;20232;-17
2023/03/15 01:02:54;;;;;;;0.60;0.60;;;6.80;74.40;;;6.37;60.71;94069.28;5115181;28;20213;-18
2023/03/15 01:05:21;;;;;;;0.70;0.70;;;6.80;74.50;;;6.35;60.89;94066.06;5114535;28;20289;-17
2023/03/15 01:07:51;;;;;;;0.70;0.70;;;6.80;74.50;;;6.34;60.82;94056.63;5114556;28;20197;-17
2023/03/15 01:10:18;;;;;;;0.70;0.70;;;6.70;74.50;;;6.32;60.77;94062.00;5115238;28;20193;-17
2023/03/15 01:12:45;;;;;;;0.70;0.70;;;6.70;74.60;;;6.36;60.69;94076.28;5115352;28;20190;-17
2023/03/15 01:15:13;;;;;;;0.70;0.70;;;6.70;74.60;;;6.34;60.85;94072.25;5115617;28;20201;-17
2023/03/15 01:17:41;;;;;;;0.70;0.70;;;6.70;74.60;;;6.35;60.44;94076.47;5114372;28;20194;-17
2023/03/15 01:20:13;;;;;;;0.60;0.60;;;6.70;74.40;;;6.33;60.53;94070.66;5115422;28;20186;-17
2023/03/15 01:22:41;;;;;;;0.70;0.70;;;6.70;74.50;;;6.32;60.41;94082.84;5114653;28;20198;-17
2023/03/15 01:25:09;;;;;;;0.70;0.70;;;6.70;74.40;;;6.27;60.76;94066.97;5131230;27;20602;-17
2023/03/15 01:27:36;;;;;;;0.70;0.70;;;6.60;74.30;;;6.30;60.38;94058.81;5115496;27;20202;-17
2023/03/15 01:30:05;;;;;;;0.80;0.80;;;6.60;74.40;;;6.27;60.12;94064.38;5114136;28;20218;-17
2023/03/15 01:32:33;;;;;;;0.60;0.60;;;6.60;74.30;;;6.29;60.48;94057.19;5131278;28;20543;-17
2023/03/15 01:35:00;;;;;;;0.70;0.70;;;6.60;74.40;;;6.28;60.36;94065.19;5114203;28;20198;-17
2023/03/15 01:37:27;;;;;;;0.70;0.70;;;6.60;74.30;;;6.30;60.20;94076.22;5114168;27;20202;-17
2023/03/15 01:39:54;;;;;;;0.77;0.77;;;6.60;74.30;;;6.32;60.20;94090.66;5131285;28;20285;-17
2023/03/15 01:42:21;;;;;;;0.63;0.63;;;6.60;74.20;;;6.32;60.21;94090.66;5115248;27;20638;-17
2023/03/15 01:45:00;;;;;;;0.77;0.77;;;6.60;74.20;;;6.29;60.06;94079.84;5114372;28;20535;-17
2023/03/15 01:47:28;;;;;;;0.60;0.60;;;6.70;74.20;;;6.30;60.35;94084.84;5118761;28;20170;-17
2023/03/15 01:50:10;;;;;;;0.80;0.80;;;6.70;74.20;;;6.30;60.33;94100.47;5118287;27;20213;-17
2023/03/15 01:52:40;;;;;;;0.70;0.70;;;6.60;74.20;;;6.28;60.09;94093.84;5134943;27;20498;-17
2023/03/15 01:55:18;;;;;;;0.80;0.80;;;6.70;74.10;;;6.24;60.21;94091.59;5117932;28;20259;-17
2023/03/15 01:58:08;;;;;;;0.70;0.70;;;6.60;73.90;;;6.22;60.33;94087.56;5131822;27;20213;-18
2023/03/15 02:00:40;;;;;;;0.68;0.68;;;6.60;74.20;;;6.20;60.12;94086.94;5117712;28;20198;-18
2023/03/15 02:03:32;;;;;;;0.60;0.60;;;6.60;74.20;;;6.18;60.04;94091.53;5135158;27;20237;-17
2023/03/15 02:06:06;;;;;;;0.70;0.70;;;6.60;74.30;;;6.17;59.99;94093.31;5117724;28;20269;-17
2023/03/15 02:08:58;;;;;;;0.73;0.73;;;6.60;74.10;;;6.12;60.11;94095.69;5117578;28;20206;-17
2023/03/15 02:11:33;;;;;;;0.70;0.70;;;6.50;74.10;;;6.10;60.41;94095.06;5117604;28;20202;-17
2023/03/15 02:14:04;;;;;;;0.60;0.60;;;6.50;74.10;;;6.07;60.76;94098.03;5100758;28;20209;-17
2023/03/15 02:16:31;;;;;;;0.70;0.70;;;6.50;74.30;;;6.06;60.73;94096.41;5117812;28;20633;-17
2023/03/15 02:19:08;;;;;;;0.70;0.70;;;6.40;74.30;;;6.07;60.42;94100.63;5135216;27;20202;-17
2023/03/15 02:22:05;;;;;;;0.70;0.70;;;6.40;74.20;;;6.03;60.32;94083.75;5117281;28;20285;-17
2023/03/15 02:25:00;;;;;;;0.70;0.70;;;6.40;74.20;;;6.09;60.41;94090.81;5117235;28;20244;-17
2023/03/15 02:27:33;;;;;;;0.70;0.70;;;6.40;74.20;;;6.07;60.45;94091.03;5117286;28;20202;-17
2023/03/15 02:30:02;;;;;;;0.50;0.50;;;6.50;74.20;;;6.09;60.30;94083.84;5134374;27;20234;-17
2023/03/15 02:32:30;;;;;;;0.70;0.70;;;6.50;74.20;;;6.08;60.06;94097.84;5134239;27;20208;-17
2023/03/15 02:34:57;;;;;;;0.60;0.60;;;6.50;74.20;;;6.08;60.44;94090.03;5118672;28;20186;-17
2023/03/15 02:37:24;;;;;;;0.60;0.60;;;6.50;74.20;;;6.05;60.31;94087.00;5118015;28;20190;-18
2023/03/15 02:39:52;;;;;;;0.63;0.63;;;6.50;74.20;;;6.05;60.56;94097.41;5117043;27;20198;-17
2023/03/15 02:42:19;;;;;;;0.70;0.70;;;6.40;74.20;;;6.04;60.23;94094.00;5117802;28;20267;-17
2023/03/15 02:44:48;;;;;;;0.77;0.77;;;6.40;74.20;;;6.02;60.18;94100.41;5117981;28;20213;-18
2023/03/15 02:47:22;;;;;;;0.60;0.60;;;6.40;74.20;;;5.99;60.28;94109.34;5117124;28;20212;-17
2023/03/15 02:49:52;;;;;;;0.70;0.70;;;6.40;74.20;;;5.98;60.48;94099.09;5116846;28;20217;-17
2023/03/15 02:52:21;;;;;;;0.60;0.60;;;6.40;74.30;;;5.98;60.27;94114.72;5099829;28;20199;-17
2023/03/15 02:54:48;;;;;;;0.80;0.80;;;6.40;74.30;;;5.98;60.61;94133.75;5117756;28;20182;-17
2023/03/15 02:57:17;;;;;;;0.75;0.75;;;6.40;74.30;;;5.96;60.29;94125.31;5116686;28;20194;-17
2023/03/15 02:59:49;;;;;;;0.60;0.60;;;6.40;74.20;;;5.96;60.36;94116.69;5116672;28;20647;-17
2023/03/15 03:02:17;;;;;;;0.60;0.60;;;6.30;74.20;;;5.98;60.52;94127.72;5100111;28;20237;-17
2023/03/15 03:04:44;;;;;;;0.60;0.60;;;6.30;74.20;;;5.99;60.48;94134.59;5099728;28;20198;-17
2023/03/15 03:07:12;;;;;;;0.70;0.70;;;6.30;74.20;;;6.01;60.12;94135.22;5116533;28;20284;-17
2023/03/15 03:09:53;;;;;;;0.70;0.70;;;6.40;74.30;;;6.00;60.21;94137.00;5116684;28;20761;-17
2023/03/15 03:12:22;;;;;;;0.70;0.70;;;6.40;74.20;;;6.05;60.12;94139.06;5133452;27;20194;-17
2023/03/15 03:14:49;;;;;;;0.60;0.60;;;6.40;74.20;;;6.11;60.22;94137.53;5116377;28;20228;-17
2023/03/15 03:17:20;;;;;;;0.60;0.60;;;6.40;74.30;;;6.16;60.17;94141.19;5116383;28;20255;-17
2023/03/15 03:19:48;;;;;;;0.60;0.60;;;6.50;74.20;;;6.20;60.05;94150.25;5117799;28;20190;-17
2023/03/15 03:22:18;;;;;;;0.70;0.70;;;6.50;74.10;;;6.18;59.67;94154.03;5116190;28;20205;-17
2023/03/15 03:24:45;;;;;;;0.70;0.70;;;6.50;73.80;;;6.16;58.38;94153.41;5099213;28;20265;-17
2023/03/15 03:27:15;;;;;;;0.70;0.70;;;6.50;73.40;;;6.18;58.70;94157.44;5116122;28;20212;-17
2023/03/15 03:29:45;;;;;;;0.70;0.70;;;6.50;73.40;;;6.17;58.48;94168.03;5116069;28;20675;-17
2023/03/15 03:32:12;;;;;;;0.63;0.63;;;6.50;73.40;;;6.09;58.56;94168.94;5132979;27;20645;-17
2023/03/15 03:34:39;;;;;;;0.60;0.60;;;6.50;73.40;;;6.05;57.92;94173.72;5133138;27;20198;-17
2023/03/15 03:37:07;;;;;;;0.63;0.63;;;6.50;73.40;;;5.99;57.55;94181.44;5115950;28;20197;-17
2023/03/15 03:39:52;;;;;;;0.80;0.80;;;6.40;72.70;;;5.91;57.92;94179.72;5115931;28;20519;-17
2023/03/15 03:42:19;;;;;;;0.80;0.80;;;6.40;73.00;;;5.89;57.60;94192.88;5132829;27;20231;-17
2023/03/15 03:44:46;;;;;;;0.70;0.70;;;6.30;72.80;;;5.83;57.59;94190.22;5115773;28;20265;-17
2023/03/15 03:47:14;;;;;;;0.60;0.60;;;6.30;72.60;;;5.86;58.00;94203.69;5133720;27;20206;-17
2023/03/15 03:49:41;;;;;;;0.70;0.70;;;6.20;72.90;;;5.82;57.68;94204.22;5098788;28;20238;-17
2023/03/15 03:52:08;;;;;;;0.70;0.70;;;6.20;72.80;;;5.80;58.17;94196.59;5116493;28;20216;-20
2023/03/15 03:54:36;;;;;;;0.68;0.68;;;6.20;73.10;;;5.81;58.06;94200.00;5115685;28;20522;-21
2023/03/15 03:57:03;;;;;;;0.80;0.80;;;6.20;73.20;;;5.81;58.05;94202.59;5115762;28;20205;-18
2023/03/15 03:59:34;;;;;;;0.70;0.70;;;6.20;73.20;;;5.80;58.25;94206.19;5132823;27;20219;-18
2023/03/15 04:02:04;;;;;;;0.70;0.70;;;6.20;73.20;;;5.80;57.78;94206.19;5115346;28;20208;-18
2023/03/15 04:04:33;;;;;;;0.90;0.90;;;6.20;73.00;;;5.76;57.62;94208.31;5132770;27;20232;-18
2023/03/15 04:07:01;;;;;;;0.70;0.70;;;6.10;73.00;;;5.74;58.10;94211.13;5115443;28;20200;-18
2023/03/15 04:09:36;;;;;;;0.70;0.70;;;6.10;73.10;;;5.74;58.17;94225.94;5114839;28;20245;-18
2023/03/15 04:12:05;;;;;;;0.70;0.70;;;6.10;73.10;;;5.68;57.31;94222.25;5132817;27;20198;-18
2023/03/15 04:14:33;;;;;;;0.70;0.70;;;6.10;72.30;;;5.68;56.54;94230.03;5132348;27;20277;-18
2023/03/15 04:17:02;;;;;;;0.70;0.70;;;6.10;72.00;;;5.61;55.54;94229.97;5115345;28;20251;-18
2023/03/15 04:19:30;;;;;;;0.70;0.70;;;6.00;71.40;;;5.55;55.50;94230.66;5115145;28;20198;-18
2023/03/15 04:21:57;;;;;;;0.70;0.70;;;6.00;71.30;;;5.48;55.68;94227.16;5116155;28;20197;-18
2023/03/15 04:24:38;;;;;;;0.70;0.70;;;6.00;71.40;;;5.46;55.57;94231.72;5114899;28;20237;-18
2023/03/15 04:27:17;;;;;;;0.70;0.70;;;5.90;70.90;;;5.37;55.06;94235.38;5115903;28;20576;-18
2023/03/15 04:30:05;;;;;;;0.50;0.50;;;5.90;70.70;;;5.31;55.01;94229.09;5108279;28;20221;-18
2023/03/15 04:32:47;;;;;;;0.70;0.70;;;5.80;70.70;;;5.28;55.42;94242.44;5114810;28;20186;-18
2023/03/15 04:35:43;;;;;;;0.80;0.80;;;5.80;70.80;;;5.20;54.80;94237.31;5131957;27;20208;-18
2023/03/15 04:38:34;;;;;;;0.60;0.60;;;5.80;70.40;;;5.18;55.04;94242.69;5114862;28;20211;-18
2023/03/15 04:41:33;;;;;;;0.65;0.65;;;5.70;70.50;;;5.10;54.13;94234.94;5115307;28;20178;-18
2023/03/15 04:44:04;;;;;;;0.60;0.60;;;5.60;69.90;;;5.11;54.40;94254.75;5115701;28;20190;-18
2023/03/15 04:47:06;;;;;;;0.70;0.70;;;5.60;70.00;;;5.08;52.99;94255.91;5073503;28;20207;-18
2023/03/15 04:50:04;;;;;;;0.70;0.70;;;5.60;69.60;;;5.02;53.43;94274.00;5119859;27;20652;-18
2023/03/15 04:52:38;;;;;;;0.68;0.68;;;5.50;69.50;;;5.02;53.37;94281.81;5131896;27;20575;-18
2023/03/15 04:55:31;;;;;;;0.68;0.68;;;5.50;69.50;;;4.96;53.52;94283.31;5115346;28;20240;-18
2023/03/15 04:58:18;;;;;;;0.75;0.75;;;5.50;69.50;;;4.97;53.41;94290.91;5114898;28;20197;-18
2023/03/15 05:01:00;;;;;;;0.60;0.60;;;5.40;69.60;;;5.00;53.64;94302.75;5114568;28;20280;-18
2023/03/15 05:03:46;;;;;;;0.68;0.68;;;5.40;69.60;;;4.95;51.64;94299.88;5114399;28;20205;-18
2023/03/15 05:06:29;;;;;;;0.68;0.68;;;5.40;68.70;;;4.92;51.03;94316.63;5114497;27;20263;-18
2023/03/15 05:09:17;;;;;;;0.60;0.60;;;5.40;68.30;;;4.87;51.78;94316.34;5115495;28;20202;-18
2023/03/15 05:11:59;;;;;;;0.70;0.70;;;5.30;68.50;;;4.81;51.17;94319.63;5114319;28;20534;-18
2023/03/15 05:14:35;;;;;;;0.70;0.70;;;5.30;68.10;;;4.80;52.23;94320.59;5115717;28;20559;-18
2023/03/15 05:17:09;;;;;;;0.70;0.70;;;5.30;68.50;;;4.80;52.47;94326.59;5114427;28;20214;-18
2023/03/15 05:20:09;;;;;;;0.70;0.70;;;5.20;68.60;;;4.84;52.17;94327.06;5115356;28;20237;-18
2023/03/15 05:22:52;;;;;;;0.70;0.70;;;5.20;68.50;;;4.81;52.36;94317.00;5135525;27;20565;-18
2023/03/15 05:25:39;;;;;;;0.60;0.60;;;5.30;68.70;;;4.84;51.95;94323.66;5118996;28;20234;-18
2023/03/15 05:28:30;;;;;;;0.80;0.80;;;5.20;68.40;;;4.77;51.81;94337.34;5113905;28;20209;-18
2023/03/15 05:31:08;;;;;;;0.70;0.70;;;5.30;68.50;;;4.79;52.35;94334.56;5118952;28;20220;-18
2023/03/15 05:33:53;;;;;;;0.70;0.70;;;5.20;68.50;;;4.77;51.98;94326.13;5119457;28;20201;-18
2023/03/15 05:36:30;;;;;;;0.70;0.70;;;5.20;68.50;;;4.77;52.14;94339.09;5119892;27;20247;-18
2023/03/15 05:39:18;;;;;;;0.70;0.70;;;5.20;68.50;;;4.80;52.43;94351.78;5119238;28;20216;-18
2023/03/15 05:42:20;;;;;;;0.70;0.70;;;5.20;68.60;;;4.76;51.70;94351.28;5114263;28;20627;-18
2023/03/15 05:45:11;;;;;;;0.68;0.68;;;5.20;68.20;;;4.74;50.69;94361.03;5110927;28;20201;-18
2023/03/15 05:47:58;;;;;;;0.70;0.70;;;5.20;67.70;;;4.75;51.53;94367.84;5135192;27;20185;-19
2023/03/15 05:50:57;;;;;;;0.68;0.68;;;5.20;68.20;;;4.74;51.45;94379.22;5118567;28;20229;-18
2023/03/15 05:53:30;;;;;;;0.70;0.70;;;5.20;68.30;;;4.73;51.79;94380.19;5118831;28;20507;-18
2023/03/15 05:56:21;;;;;;;0.80;0.80;;;5.20;68.20;;;4.74;51.65;94381.03;5117980;28;20625;-18
2023/03/15 05:58:48;;;;;;;0.80;0.80;;;5.20;68.30;;;4.78;52.27;94387.50;5119112;28;20194;-18
2023/03/15 06:01:32;;;;;;;0.70;0.70;;;5.20;68.40;;;4.80;52.07;94386.34;5118187;28;20225;-18
2023/03/15 06:04:13;;;;;;;0.80;0.80;;;5.20;68.50;;;4.81;51.41;94390.56;5117644;28;20226;-18
2023/03/15 06:06:40;;;;;;;0.70;0.70;;;5.20;68.00;;;4.86;51.89;94397.84;5134902;27;20212;-18
2023/03/15 06:09:10;;;;;;;0.60;0.60;;;5.20;68.40;;;4.86;51.51;94400.47;5117579;28;20198;-18
2023/03/15 06:11:37;;;;;;;0.73;0.73;;;5.30;68.20;;;4.89;51.84;94409.69;5117604;28;20535;-18
2023/03/15 06:14:05;;;;;;;0.70;0.70;;;5.30;68.20;;;4.88;51.22;94414.09;5134575;27;20278;-18
2023/03/15 06:16:40;;;;;;;0.60;0.60;;;5.30;68.00;;;4.90;51.52;94413.91;5117573;28;20189;-18
2023/03/15 06:19:07;;;;;;;0.77;0.77;;;5.30;68.10;;;4.92;50.76;94420.56;5117497;28;20198;-18
2023/03/15 06:21:35;;;;;;;0.80;0.80;;;5.30;67.60;;;4.91;51.21;94420.75;5117415;27;20221;-18
2023/03/15 06:24:08;;;;;;;0.70;0.70;;;5.30;67.80;;;4.89;49.74;94427.88;5134240;27;20536;-18
2023/03/15 06:26:36;;;;;;;0.80;0.80;;;5.30;67.10;;;4.84;49.85;94428.38;5116464;28;20194;-18
2023/03/15 06:29:05;;;;;;;0.80;0.80;;;5.30;67.00;;;4.80;50.53;94440.09;5116090;28;20263;-18
2023/03/15 06:31:32;;;;;;;0.70;0.70;;;5.30;67.50;;;4.83;51.00;94452.75;5115664;28;20198;-18
2023/03/15 06:34:05;;;;;;;0.70;0.70;;;5.30;67.60;;;4.88;51.45;94458.28;5133643;27;20528;-20
2023/03/15 06:36:33;;;;;;;0.80;0.80;;;5.30;67.60;;;4.88;50.55;94466.06;5116199;28;20585;-19
2023/03/15 06:39:01;;;;;;;0.70;0.70;;;5.30;67.20;;;4.83;50.10;94478.72;5116938;28;20529;-19
2023/03/15 06:41:28;;;;;;;0.68;0.68;;;5.30;66.90;;;4.78;51.39;94470.63;5117213;28;20208;-19
2023/03/15 06:44:03;;;;;;;0.80;0.80;;;5.20;67.60;;;4.75;51.45;94476.97;5084351;28;20212;-19
2023/03/15 06:46:32;;;;;;;0.70;0.70;;;5.20;67.60;;;4.81;51.01;94485.91;5115865;28;20201;-18
2023/03/15 06:48:59;;;;;;;0.70;0.70;;;5.30;67.70;;;4.83;51.39;94483.94;5133221;27;20648;-18
2023/03/15 06:51:27;;;;;;;0.70;0.70;;;5.20;67.70;;;4.90;51.51;94482.28;5115719;28;20214;-19
2023/03/15 06:53:54;;;;;;;0.77;0.77;;;5.30;67.80;;;4.94;52.45;94487.97;5132637;28;20182;-17
2023/03/15 06:56:21;;;;;;;0.60;0.60;;;5.30;68.20;;;5.04;53.10;94485.16;5115666;28;20204;-17
2023/03/15 06:58:49;;;;;;;0.60;0.60;;;5.40;68.70;;;5.07;52.93;94500.44;5115763;28;20190;-17
2023/03/15 07:01:16;;;;;;;0.70;0.70;;;5.50;68.60;;;5.19;52.96;94504.28;5117110;28;20194;-17
2023/03/15 07:03:43;;;;;;;0.70;0.70;;;5.60;68.80;;;5.20;53.02;94521.50;5116437;28;20197;-17
2023/03/15 07:06:10;;;;;;;0.70;0.70;;;5.60;68.80;;;5.19;53.99;94519.88;5132829;28;20201;-17
2023/03/15 07:08:37;;;;;;;0.70;0.70;;;5.60;69.20;;;5.27;54.13;94529.44;5116704;28;20194;-17
2023/03/15 07:11:05;;;;;;;0.70;0.70;;;5.70;69.40;;;5.31;53.69;94535.09;5098493;28;20226;-17
2023/03/15 07:13:32;;;;;;;0.70;0.70;;;5.70;69.30;;;5.31;54.39;94527.31;5132475;28;20640;-17
2023/03/15 07:15:59;;;;;;;0.80;0.80;;;5.70;69.60;;;5.38;54.71;94536.06;5116527;28;20186;-17
2023/03/15 07:18:26;;;;;;;0.60;0.60;;;5.80;69.60;;;5.30;53.89;94526.50;5116520;28;20190;-17
2023/03/15 07:20:57;;;;;;;0.70;0.70;;;5.90;69.20;;;5.27;54.73;94534.63;5116255;28;20190;-17
2023/03/15 07:23:25;;;;;;;0.80;0.80;;;5.80;69.70;;;5.33;54.68;94533.97;5116448;28;20236;-17
2023/03/15 07:25:53;;;;;;;0.80;0.80;;;5.80;69.80;;;5.38;55.04;94539.50;5077186;28;1127311;-17
2023/03/15 07:28:23;;;;;;;0.70;0.70;;;5.90;69.90;;;5.38;53.35;94549.06;5117373;28;20190;-17
2023/03/15 07:31:00;;;;;;;0.70;0.70;;;5.90;69.20;;;5.30;52.24;94536.91;5117248;28;20290;-17
2023/03/15 07:33:29;;;;;;;0.80;0.80;;;5.90;68.20;;;5.24;52.10;94553.19;5116198;28;20178;-17
2023/03/15 07:35:56;;;;;;;0.70;0.70;;;5.80;67.90;;;5.16;52.41;94553.22;5116126;28;20198;-17
2023/03/15 07:38:29;;;;;;;0.70;0.70;;;5.80;68.20;;;5.15;52.10;94555.00;5116939;28;20204;-17
2023/03/15 07:41:00;;;;;;;0.70;0.70;;;5.70;68.60;;;5.14;52.94;94558.59;5117179;28;20182;-17
2023/03/15 07:43:28;;;;;;;0.70;0.70;;;5.70;68.40;;;5.22;51.89;94549.94;5131661;27;20191;-17
2023/03/15 07:46:07;;;;;;;0.70;0.70;;;5.70;67.80;;;5.23;51.04;94560.16;5133239;27;20313;-17
2023/03/15 07:48:34;;;;;;;0.70;0.70;;;5.70;67.40;;;5.27;51.06;94564.06;5116706;28;20227;-17
2023/03/15 07:51:01;;;;;;;0.70;0.70;;;5.80;67.50;;;5.31;50.43;94567.16;5116549;28;20206;-17
2023/03/15 07:53:28;;;;;;;0.60;0.60;;;5.80;67.10;;;5.31;50.32;94566.31;5116409;28;20578;-17
2023/03/15 07:55:55;;;;;;;0.70;0.70;;;5.80;66.90;;;5.31;50.40;94569.75;5117074;28;20528;-17
2023/03/15 07:58:22;;;;;;;0.63;0.63;;;5.80;66.90;;;5.29;50.17;94574.28;5116485;28;20190;-17
2023/03/15 08:00:49;;;;;;;0.70;0.70;;;5.80;66.50;;;5.26;51.06;94562.44;5116718;28;20617;-17
2023/03/15 08:03:16;;;;;;;0.63;0.63;;;5.80;67.30;;;5.32;50.39;94570.53;5132374;27;20220;-17
2023/03/15 08:05:43;;;;;;;0.70;0.70;;;5.80;66.70;;;5.36;50.86;94559.66;5132699;27;20218;-17
2023/03/15 08:08:10;;;;;;;0.70;0.70;;;5.90;67.10;;;5.48;50.08;94588.72;5116651;28;20209;-17
2023/03/15 08:10:37;;;;;;;0.80;0.80;;;5.90;66.50;;;5.42;49.44;94568.53;5116167;28;20210;-17
2023/03/15 08:13:04;;;;;;;0.70;0.70;;;5.90;66.20;;;5.45;50.06;94582.03;5116080;28;20201;-17
2023/03/15 08:15:31;;;;;;;0.70;0.70;;;5.90;66.70;;;5.47;49.70;94583.66;5116189;27;20269;-17
2023/03/15 08:17:58;;;;;;;0.80;0.80;;;6.00;66.30;;;5.49;50.13;94577.31;5116127;28;20190;-17
2023/03/15 08:20:26;;;;;;;0.70;0.70;;;6.00;66.50;;;5.58;50.27;94589.31;5116104;28;20236;-17
2023/03/15 08:22:55;;;;;;;0.60;0.60;;;6.00;66.70;;;5.64;49.36;94579.19;5116393;28;20212;-17
2023/03/15 08:25:23;;;;;;;0.60;0.60;;;6.10;66.40;;;5.69;48.57;94585.53;5115897;27;20318;-17
2023/03/15 08:27:51;;;;;;;0.70;0.70;;;6.20;65.90;;;5.69;48.47;94595.09;5116259;28;20204;-17
2023/03/15 08:30:20;;;;;;;0.70;0.70;;;6.20;65.50;;;5.72;50.04;94598.19;5116068;28;20236;-17
2023/03/15 08:32:51;;;;;;;0.70;0.70;;;6.20;66.50;;;5.80;48.70;94625.16;5115892;28;20561;-17
2023/03/15 08:35:20;;;;;;;0.70;0.70;;;6.30;65.80;;;5.88;50.06;94610.34;5115751;28;20251;-17
2023/03/15 08:37:48;;;;;;;0.70;0.70;;;6.30;66.50;;;5.84;49.54;94603.81;5115843;28;20187;-17
2023/03/15 08:40:17;;;;;;;0.70;0.70;;;6.40;66.30;;;5.76;48.97;94607.28;5114842;28;20274;-17
2023/03/15 08:42:45;;;;;;;0.70;0.70;;;6.40;65.70;;;5.70;48.37;94607.13;5116039;28;20206;-17
2023/03/15 08:45:12;;;;;;;0.70;0.70;;;6.40;65.30;;;5.80;49.26;94601.72;5115549;28;20205;-17
2023/03/15 08:47:39;;;;;;;0.70;0.70;;;6.40;66.00;;;5.90;48.52;94607.56;5115925;28;20215;-17
2023/03/15 08:50:10;;;;;;;0.70;0.70;;;6.40;65.60;;;6.01;48.14;94598.59;5114607;28;20262;-17
2023/03/15 08:52:38;;;;;;;0.70;0.70;;;6.50;65.20;;;6.02;47.10;94595.00;5115890;27;20182;-17
2023/03/15 08:55:07;;;;;;;0.70;0.70;;;6.50;64.70;;;6.14;48.42;94598.00;5115402;28;20208;-17
2023/03/15 08:57:34;;;;;;;0.60;0.60;;;6.60;65.60;;;6.27;48.29;94605.25;5116121;28;20501;-17
2023/03/15 09:00:07;;;;;;;0.70;0.70;;;6.70;65.60;;;6.40;46.63;94610.72;5115997;28;20529;-17
2023/03/15 09:02:37;;;;;;;0.70;0.70;;;6.80;64.40;;;6.55;47.09;94619.41;5115533;28;20516;-17
2023/03/15 09:05:05;;;;;;;0.70;0.70;;;6.90;64.70;;;6.61;45.15;94606.66;5115336;28;20186;-17
2023/03/15 09:07:33;;;;;;;0.60;0.60;;;7.10;63.50;;;6.74;47.77;94604.28;5114494;28;20227;-17
2023/03/15 09:10:00;;;;;;;0.70;0.70;;;7.20;65.00;;;6.94;48.05;94616.81;5115600;28;20186;-17
2023/03/15 09:12:31;;;;;;;0.70;0.70;;;7.30;65.50;;;7.18;46.43;94626.22;5115688;27;20187;-17
2023/03/15 09:14:58;;;;;;;0.70;0.70;;;7.50;64.50;;;7.29;43.99;94610.13;5115423;28;20186;-17
2023/03/15 09:17:25;;;;;;;0.63;0.63;;;7.70;62.70;;;7.14;43.09;94619.72;5115350;28;20270;-17
2023/03/15 09:19:52;;;;;;;0.60;0.60;;;7.70;62.00;;;7.16;43.68;94626.38;5115307;28;20217;-17
2023/03/15 09:22:19;;;;;;;0.70;0.70;;;7.70;62.10;;;7.19;44.80;94620.81;5115340;28;20241;-17
2023/03/15 09:25:05;;;;;;;0.70;0.70;;;7.70;62.80;;;7.29;45.35;94620.56;5115141;28;20225;-17
2023/03/15 09:27:33;;;;;;;0.60;0.60;;;7.70;63.40;;;7.43;45.17;94624.16;5115498;28;20250;-17
2023/03/15 09:30:00;;;;;;;0.70;0.70;;;7.90;63.20;;;7.51;44.90;94634.53;5115399;28;20210;-17
2023/03/15 09:32:27;;;;;;;0.80;0.80;;;8.00;63.20;;;7.45;44.58;94627.41;5115197;28;20591;-17
2023/03/15 09:34:54;;;;;;;0.63;0.63;;;8.00;62.70;;;7.52;44.22;94632.75;5115311;28;20281;-17
2023/03/15 09:37:21;;;;;;;0.70;0.70;;;8.00;62.70;;;7.63;43.63;94637.50;5114268;28;20198;-17
2023/03/15 09:39:48;;;;;;;0.70;0.70;;;8.10;62.00;;;7.68;43.08;94640.38;5114276;28;20186;-17
2023/03/15 09:42:23;;;;;;;0.70;0.70;;;8.20;61.60;;;7.70;42.37;94655.84;5115116;28;20668;-17
2023/03/15 09:45:17;;;;;;;0.70;0.70;;;8.30;61.30;;;7.69;42.88;94630.75;5114106;28;20174;-18
2023/03/15 09:48:02;;;;;;;0.75;0.75;;;8.30;61.30;;;7.68;43.52;94624.72;5115248;28;20256;-17
2023/03/15 09:50:34;;;;;;;0.80;0.80;;;8.30;61.50;;;7.82;43.84;94628.31;5114719;28;20632;-17
2023/03/15 09:53:10;;;;;;;0.70;0.70;;;8.30;62.10;;;8.03;43.87;94637.19;5114752;28;20529;-17
2023/03/15 09:55:38;;;;;;;0.70;0.70;;;8.50;62.10;;;8.21;42.85;94642.03;5131084;28;20185;-18
2023/03/15 09:58:20;;;;;;;0.70;0.70;;;8.60;61.50;;;8.28;42.58;94639.50;5115523;28;20193;-17
2023/03/15 10:00:56;;;;;;;0.70;0.70;;;8.80;61.30;;;8.38;42.51;94629.53;5114161;28;20185;-17
2023/03/15 10:03:36;;;;;;;0.70;0.70;;;8.80;61.20;;;8.39;40.70;94627.75;5114079;28;20597;-17
2023/03/15 10:06:16;;;;;;;0.70;0.70;;;8.90;59.80;;;8.46;41.98;94629.47;5113888;28;20280;-17
2023/03/15 10:08:44;;;;;;;0.70;0.70;;;8.90;60.80;;;8.58;40.45;94619.34;5134895;27;20182;-17
2023/03/15 10:11:26;;;;;;;0.60;0.60;;;9.10;59.90;;;8.60;40.56;94627.78;5134743;27;20209;-17
2023/03/15 10:13:56;;;;;;;0.60;0.60;;;9.10;59.70;;;8.51;38.03;94626.31;5117860;28;20203;-17
2023/03/15 10:16:46;;;;;;;0.80;0.80;;;9.10;57.30;;;8.33;39.04;94624.88;5134737;27;20178;-18
2023/03/15 10:19:47;;;;;;;0.70;0.70;;;9.00;58.50;;;8.17;39.05;94633.75;5119090;28;20192;-17
2023/03/15 10:22:34;;;;;;;0.70;0.70;;;8.90;57.80;;;8.01;40.12;94636.56;5118726;28;20192;-17
2023/03/15 10:25:30;;;;;;;0.60;0.60;;;8.80;58.50;;;8.00;40.54;94632.34;5117088;28;20541;-17
2023/03/15 10:28:12;;;;;;;0.70;0.70;;;8.70;59.20;;;8.01;39.34;94626.94;5118329;28;20182;-17
2023/03/15 10:30:46;;;;;;;0.70;0.70;;;8.60;58.00;;;7.87;40.63;94632.19;5118393;28;20198;-17
2023/03/15 10:33:30;;;;;;;0.70;0.70;;;8.50;58.80;;;7.85;41.11;94627.16;5118528;28;20244;-17
2023/03/15 10:35:59;;;;;;;0.70;0.70;;;8.40;59.50;;;7.88;40.54;94639.81;5117197;28;20202;-17
2023/03/15 10:38:38;;;;;;;0.70;0.70;;;8.50;58.70;;;7.67;41.52;94628.31;5132861;27;20269;-17
2023/03/15 10:41:05;;;;;;;0.70;0.70;;;8.40;59.40;;;7.68;40.46;94622.09;5117307;28;20251;-17
2023/03/15 10:43:36;;;;;;;0.70;0.70;;;8.30;58.80;;;7.69;38.13;94622.94;5118002;28;20182;-17
2023/03/15 10:46:06;;;;;;;0.60;0.60;;;8.30;58.40;;;7.71;39.73;94620.94;5117864;28;20272;-17
2023/03/15 10:48:56;;;;;;;0.60;0.60;;;8.30;58.10;;;7.69;40.44;94622.94;5118103;28;20528;-17
2023/03/15 10:51:41;;;;;;;0.70;0.70;;;8.30;58.30;;;7.79;41.34;94630.47;5116936;28;20301;-17
2023/03/15 10:54:18;;;;;;;0.70;0.70;;;8.30;59.80;;;7.94;39.65;94620.00;5117687;28;20518;-17
2023/03/15 10:57:20;;;;;;;0.70;0.70;;;8.40;58.40;;;8.03;41.54;94629.34;5118075;28;20197;-17